WetterOnline ( https://www.wetteronline.de )

Wetter aktuell Westerdeichstrich

Aktuelles Wetter: Heide/Elpersbüttel (5m)

6-stündlich | Neueste Meldungen
Ortszeit Temperatur Wetter
Mo, 26.10. 19:00 9.0° C bedeckt
Mo, 26.10. 13:00 11.4° C bewölkt
Mo, 26.10. 7:00 9.9° C bedeckt
Mo, 26.10. 1:00 8.9° C fast wolkenlos
So, 25.10. 19:00 10.5° C Regen
So, 25.10. 13:00 12.0° C bedeckt
So, 25.10. 7:00 13.9° C bewölkt
So, 25.10. 2:00 13.4° C wolkig
Ortszeit Temperatur Wetter
Mo, 26.10. 20:00 7.6° C wolkenlos
Mo, 26.10. 19:50 7.6° C wolkenlos
Mo, 26.10. 19:40 8.0° C wolkenlos
Mo, 26.10. 19:30 8.4° C leicht bewölkt
Mo, 26.10. 19:20 8.4° C leicht bewölkt
Mo, 26.10. 19:10 8.6° C wolkig
Mo, 26.10. 19:00 9.0° C bedeckt
Mo, 26.10. 18:30 6.9° C fast wolkenlos
Mo, 26.10. 18:00 8.2° C leicht bewölkt
Mo, 26.10. 17:30 8.9° C leicht bewölkt
Mo, 26.10. 17:00 10.3° C bewölkt
Ortszeit Relative Feuchte Sichtweite
Mo, 26.10. 19:00 85% 65 km
Mo, 26.10. 13:00 86% 35 km
Mo, 26.10. 7:00 95% 13 km
Mo, 26.10. 1:00 98% 12 km
So, 25.10. 19:00 94% >70 km
So, 25.10. 13:00 93% 65 km
So, 25.10. 7:00 81% >70 km
So, 25.10. 2:00 84% 60 km
Ortszeit Relative Feuchte Sichtweite
Mo, 26.10. 20:00 85% 50 km
Mo, 26.10. 19:50 85% -
Mo, 26.10. 19:40 84% -
Mo, 26.10. 19:30 83% 65 km
Mo, 26.10. 19:20 83% -
Mo, 26.10. 19:10 84% -
Mo, 26.10. 19:00 85% 65 km
Mo, 26.10. 18:30 88% 55 km
Mo, 26.10. 18:00 89% 50 km
Mo, 26.10. 17:30 91% 45 km
Mo, 26.10. 17:00 86% 60 km
Ortszeit Niederschlagsmenge Niederschlagsart
Mo, 26.10. 19:00 0.1 l/m2 in 12 Std. -
Mo, 26.10. 13:00 0.1 l/m2 in 6 Std. Sprühregen
Mo, 26.10. 7:00 0.1 l/m2 in 12 Std. -
Mo, 26.10. 1:00 0.1 l/m2 in 6 Std. Regen
So, 25.10. 19:00 5 l/m2 in 12 Std. Regen
So, 25.10. 13:00 2 l/m2 in 6 Std. Regen
So, 25.10. 7:00 0.1 l/m2 in 12 Std. -
So, 25.10. 2:00 0.1 l/m2 in 6 Std. Sprühregen
Ortszeit Niederschlagsmenge Niederschlagsart
Mo, 26.10. 20:00 0.0 l/m2 in 1 Std. -
Mo, 26.10. 19:50 keine Meldung -
Mo, 26.10. 19:40 keine Meldung -
Mo, 26.10. 19:30 0.0 l/m2 in 1 Std. -
Mo, 26.10. 19:20 keine Meldung -
Mo, 26.10. 19:10 keine Meldung -
Mo, 26.10. 19:00 0.0 l/m2 in 1 Std. -
Mo, 26.10. 18:30 0.0 l/m2 in 1 Std. -
Mo, 26.10. 18:00 0.0 l/m2 in 1 Std. -
Mo, 26.10. 17:30 0.0 l/m2 in 1 Std. -
Mo, 26.10. 17:00 0.0 l/m2 in 1 Std. -
Ortszeit Stärke Spitze Richtung
km/h Bft. km/h Grad Sektor
Mo, 26.10. 19:00 15 3 30 180° S
Mo, 26.10. 13:00 19 3 31 210° SW
Mo, 26.10. 7:00 14 3 22 180° S
Mo, 26.10. 1:00 14 3 25 180° S
So, 25.10. 19:00 17 3 41 180° S
So, 25.10. 13:00 18 3 50 190° S
So, 25.10. 7:00 31 5 48 170° S
So, 25.10. 2:00 24 4 41 170° S
Ortszeit Stärke Spitze Richtung
km/h Bft. km/h Grad Sektor
Mo, 26.10. 20:00 18 3 25 180° S
Mo, 26.10. 19:50 18 3 - 180° S
Mo, 26.10. 19:40 17 3 - 180° S
Mo, 26.10. 19:30 17 3 22 180° S
Mo, 26.10. 19:20 17 3 - 180° S
Mo, 26.10. 19:10 17 3 - 180° S
Mo, 26.10. 19:00 15 3 28 180° S
Mo, 26.10. 18:30 14 3 29 190° S
Mo, 26.10. 18:00 13 3 22 190° S
Mo, 26.10. 17:30 11 2 22 190° S
Mo, 26.10. 17:00 14 3 29 190° S
Ortszeit Untergrenze Bedeckung Gattung
total tief tief mittel hoch
Mo, 26.10. 19:00 1500 m 8/8 8/8 - - -
Mo, 26.10. 13:00 450 m 7/8 7/8 - - -
Mo, 26.10. 7:00 1440 m 8/8 8/8 - - -
Mo, 26.10. 1:00 7800 m 1/8 0/8 - - -
So, 25.10. 19:00 1500 m 7/8 8/8 - - -
So, 25.10. 13:00 960 m 8/8 8/8 - - -
So, 25.10. 7:00 1230 m 8/8 6/8 - - -
So, 25.10. 2:00 1290 m 7/8 5/8 - - -
Ortszeit Bedeckungsgrad in Achtel und Wolkenuntergrenze
Mo, 26.10. 20:00 keine Wolken
Mo, 26.10. 19:50 keine Wolken
Mo, 26.10. 19:40 keine Wolken
Mo, 26.10. 19:30 4(1500m)
Mo, 26.10. 19:20 4(1500m)
Mo, 26.10. 19:10 5(1500m)
Mo, 26.10. 19:00 8(1500m)
Mo, 26.10. 18:30 1(1500m)
Mo, 26.10. 18:00 2(1110m)
Mo, 26.10. 17:30 1(840m) 3(1500m) 3(8400m)
Mo, 26.10. 17:00 3(900m) 4(1200m) 7(1500m)
Ortszeit Luftdruck NN (hPa) Tendenz (hPa in 3 Std.)
Mo, 26.10. 19:00 1001 + 0,7
Mo, 26.10. 13:00 1000 - 0,2
Mo, 26.10. 7:00 1000 - 0,3
Mo, 26.10. 1:00 1001 0,0
So, 25.10. 19:00 1001 0,0
So, 25.10. 13:00 1001 - 0,1
So, 25.10. 7:00 1000 - 1,7
So, 25.10. 2:00 1004 - 1,4
Ortszeit Luftdruck NN (hPa) Tendenz (hPa in 3 Std.)
Mo, 26.10. 20:00 1000 + 0,1
Mo, 26.10. 19:50 1000 keine Meldung
Mo, 26.10. 19:40 1000 keine Meldung
Mo, 26.10. 19:30 1001 + 0,3
Mo, 26.10. 19:20 1001 keine Meldung
Mo, 26.10. 19:10 1001 keine Meldung
Mo, 26.10. 19:00 1001 + 0,7
Mo, 26.10. 18:30 1001 + 0,4
Mo, 26.10. 18:00 1000 + 0,4
Mo, 26.10. 17:30 1000 + 0,4
Mo, 26.10. 17:00 1000 + 0,4
Ortszeit Schneehöhe (cm)
Mo, 26.10. 19:00 0
Mo, 26.10. 13:00 0
Mo, 26.10. 7:00 0
Mo, 26.10. 1:00 0
So, 25.10. 19:00 0
So, 25.10. 13:00 0
So, 25.10. 7:00 0
So, 25.10. 2:00 0
Ortszeit Schneehöhe (cm)
Mo, 26.10. 20:00 0
Mo, 26.10. 19:50 0
Mo, 26.10. 19:40 0
Mo, 26.10. 19:30 0
Mo, 26.10. 19:20 0
Mo, 26.10. 19:10 0
Mo, 26.10. 19:00 0
Mo, 26.10. 18:30 0
Mo, 26.10. 18:00 0
Mo, 26.10. 17:30 0
Mo, 26.10. 17:00 0
Link zu dieser Seite / Seite empfehlen

Das Wetter in ...